Kaministiqua — CFN4612 — position and weather

sailwx.info

Track history (hours):
 
Tides and Currents Weather Stations Pressure Air Temp Water Temp Dewpoint Dewpoint Depression Visibility Wind Speed Wind Dir Waves Ship Positions

Kaministiqua

Last reported at 2014-Dec-19 22:17 UTC. Time now 2014-Dec-20 02:59 UTC.
Position N 44°14' W 076°08'.

Length 223 m; draft 7.9 m.

Type: Cargo ship. MMSI: 316009457.

Date/timePositionNaut miles runAvg speedWind from/ knotsBaromVisibWave heightAir tempDewpointWater temp
2014-Dec-19 22:17N 44°14' W 076°08'811.1
2014-Dec-19 21:34N 44°12' W 076°18'1615.8
2014-Dec-19 20:34N 43°58' W 076°30'  
2014-Dec-17 11:29N 43°53' W 076°35'1112.4
2014-Dec-17 10:33N 44°03' W 076°26'9 8.6
2014-Dec-17 09:34N 44°10' W 076°19'94 7.2
2014-Dec-16 20:30N 45°04' W 074°31'1110.0
2014-Dec-16 19:27N 45°11' W 074°19'9 9.7
2014-Dec-16 18:34N 45°14' W 074°08'8 7.7
2014-Dec-16 17:33N 45°16' W 073°57'3 3.2
2014-Dec-16 16:33N 45°19' W 073°55'1 1.1
2014-Dec-16 15:34N 45°20' W 073°55'8 7.9
2014-Dec-16 14:34N 45°24' W 073°45'7 7.0
2014-Dec-16 13:33N 45°24' W 073°35'2 1.9
2014-Dec-16 12:31N 45°24' W 073°33'5 4.9
2014-Dec-16 11:34N 45°29' W 073°31'1 0.7
2014-Dec-16 10:32N 45°30' W 073°31'3 2.9
2014-Dec-16 09:34N 45°33' W 073°32'9 8.5
2014-Dec-16 08:34N 45°41' W 073°27'9 9.4
2014-Dec-16 07:33N 45°48' W 073°20'10 9.3
2014-Dec-16 06:30N 45°57' W 073°13'  
2014-Dec-10 20:05N 45°29' W 073°31'5 3.1
2014-Dec-10 18:33N 45°25' W 073°31'2 2.0
2014-Dec-10 17:33N 45°24' W 073°34'4 3.8
2014-Dec-10 16:32N 45°25' W 073°40'7 7.5
2014-Dec-10 15:33N 45°22' W 073°50'5 4.8
2014-Dec-10 14:30N 45°19' W 073°55'1 0.9
2014-Dec-10 13:33N 45°18' W 073°56'1 1.3
2014-Dec-10 12:33N 45°17' W 073°56'2 2.3
2014-Dec-10 11:32N 45°15' W 073°58'6 5.6
2014-Dec-10 10:27N 45°14' W 074°07'  
Track history (hours):
 
Tides and Currents Weather Stations Pressure Air Temp Water Temp Dewpoint Dewpoint Depression Visibility Wind Speed Wind Dir Waves Ship Positions

Kaministiqua

Last reported at 2014-Dec-19 22:17 UTC. Time now 2014-Dec-20 02:59 UTC.
Position N 44°14' W 076°08'.

Length 223 m; draft 7.9 m.

Type: Cargo ship. MMSI: 316009457.

Date/timePositionNaut miles runAvg speedWind from/ knotsBaromVisibWave heightAir tempDewpointWater temp
2014-Dec-19 22:17N 44°14' W 076°08'811.1
2014-Dec-19 21:34N 44°12' W 076°18'1615.8
2014-Dec-19 20:34N 43°58' W 076°30'  
2014-Dec-17 11:29N 43°53' W 076°35'1112.4
2014-Dec-17 10:33N 44°03' W 076°26'9 8.6
2014-Dec-17 09:34N 44°10' W 076°19'94 7.2
2014-Dec-16 20:30N 45°04' W 074°31'1110.0
2014-Dec-16 19:27N 45°11' W 074°19'9 9.7
2014-Dec-16 18:34N 45°14' W 074°08'8 7.7
2014-Dec-16 17:33N 45°16' W 073°57'3 3.2
2014-Dec-16 16:33N 45°19' W 073°55'1 1.1
2014-Dec-16 15:34N 45°20' W 073°55'8 7.9
2014-Dec-16 14:34N 45°24' W 073°45'7 7.0
2014-Dec-16 13:33N 45°24' W 073°35'2 1.9
2014-Dec-16 12:31N 45°24' W 073°33'5 4.9
2014-Dec-16 11:34N 45°29' W 073°31'1 0.7
2014-Dec-16 10:32N 45°30' W 073°31'3 2.9
2014-Dec-16 09:34N 45°33' W 073°32'9 8.5
2014-Dec-16 08:34N 45°41' W 073°27'9 9.4
2014-Dec-16 07:33N 45°48' W 073°20'10 9.3
2014-Dec-16 06:30N 45°57' W 073°13'  
2014-Dec-10 20:05N 45°29' W 073°31'5 3.1
2014-Dec-10 18:33N 45°25' W 073°31'2 2.0
2014-Dec-10 17:33N 45°24' W 073°34'4 3.8
2014-Dec-10 16:32N 45°25' W 073°40'7 7.5
2014-Dec-10 15:33N 45°22' W 073°50'5 4.8
2014-Dec-10 14:30N 45°19' W 073°55'1 0.9
2014-Dec-10 13:33N 45°18' W 073°56'1 1.3
2014-Dec-10 12:33N 45°17' W 073°56'2 2.3
2014-Dec-10 11:32N 45°15' W 073°58'6 5.6
2014-Dec-10 10:27N 45°14' W 074°07'  

Dump ship's entire track history